sensor_id;sensor_type;location;lat;lon;timestamp;P1;durP1;ratioP1;P2;durP2;ratioP2
77310;SDS011;66371;52.714;5.074;2023-08-06T00:01:00;18.13;;;15.43;;
77310;SDS011;66371;52.714;5.074;2023-08-06T00:03:35;13.80;;;12.32;;
77310;SDS011;66371;52.714;5.074;2023-08-06T00:06:59;15.30;;;13.80;;
77310;SDS011;66371;52.714;5.074;2023-08-06T00:09:52;18.15;;;16.45;;
77310;SDS011;66371;52.714;5.074;2023-08-06T00:12:53;13.82;;;12.40;;
77310;SDS011;66371;52.714;5.074;2023-08-06T00:16:16;11.95;;;10.68;;
77310;SDS011;66371;52.714;5.074;2023-08-06T00:19:38;12.10;;;10.82;;
77310;SDS011;66371;52.714;5.074;2023-08-06T00:23:04;13.45;;;10.63;;
77310;SDS011;66371;52.714;5.074;2023-08-06T00:25:31;11.70;;;10.50;;
77310;SDS011;66371;52.714;5.074;2023-08-06T00:27:56;11.37;;;10.27;;
77310;SDS011;66371;52.714;5.074;2023-08-06T00:30:21;11.80;;;10.27;;
77310;SDS011;66371;52.714;5.074;2023-08-06T00:32:47;13.53;;;12.23;;
77310;SDS011;66371;52.714;5.074;2023-08-06T00:35:12;13.90;;;11.23;;
77310;SDS011;66371;52.714;5.074;2023-08-06T00:37:55;11.25;;;9.98;;
77310;SDS011;66371;52.714;5.074;2023-08-06T00:41:17;13.65;;;11.07;;
77310;SDS011;66371;52.714;5.074;2023-08-06T00:47:22;12.98;;;11.63;;
77310;SDS011;66371;52.714;5.074;2023-08-06T00:50:45;13.32;;;12.02;;
77310;SDS011;66371;52.714;5.074;2023-08-06T00:54:10;12.60;;;10.88;;
77310;SDS011;66371;52.714;5.074;2023-08-06T00:57:33;11.77;;;10.55;;
77310;SDS011;66371;52.714;5.074;2023-08-06T01:03:28;12.77;;;11.50;;
77310;SDS011;66371;52.714;5.074;2023-08-06T01:05:53;17.05;;;15.57;;
77310;SDS011;66371;52.714;5.074;2023-08-06T01:15:09;12.63;;;10.68;;
77310;SDS011;66371;52.714;5.074;2023-08-06T01:17:50;12.95;;;11.18;;
77310;SDS011;66371;52.714;5.074;2023-08-06T01:21:17;17.95;;;16.02;;
77310;SDS011;66371;52.714;5.074;2023-08-06T01:24:41;15.60;;;11.55;;
77310;SDS011;66371;52.714;5.074;2023-08-06T01:27:27;13.52;;;12.10;;
77310;SDS011;66371;52.714;5.074;2023-08-06T01:31:05;16.00;;;10.55;;
77310;SDS011;66371;52.714;5.074;2023-08-06T01:34:33;14.68;;;12.88;;
77310;SDS011;66371;52.714;5.074;2023-08-06T01:37:58;14.98;;;12.88;;
77310;SDS011;66371;52.714;5.074;2023-08-06T01:41:22;15.00;;;11.50;;
77310;SDS011;66371;52.714;5.074;2023-08-06T01:44:46;16.10;;;14.43;;
77310;SDS011;66371;52.714;5.074;2023-08-06T01:48:03;15.55;;;13.23;;
77310;SDS011;66371;52.714;5.074;2023-08-06T01:51:27;15.35;;;13.20;;
77310;SDS011;66371;52.714;5.074;2023-08-06T01:54:50;17.40;;;15.68;;
77310;SDS011;66371;52.714;5.074;2023-08-06T01:58:14;18.95;;;17.25;;
77310;SDS011;66371;52.714;5.074;2023-08-06T02:01:38;16.80;;;14.60;;
77310;SDS011;66371;52.714;5.074;2023-08-06T02:05:02;16.25;;;13.05;;
77310;SDS011;66371;52.714;5.074;2023-08-06T02:08:27;16.05;;;13.95;;
77310;SDS011;66371;52.714;5.074;2023-08-06T02:11:50;16.40;;;14.40;;
77310;SDS011;66371;52.714;5.074;2023-08-06T02:15:14;16.80;;;13.98;;
77310;SDS011;66371;52.714;5.074;2023-08-06T02:18:38;17.42;;;14.40;;
77310;SDS011;66371;52.714;5.074;2023-08-06T02:22:02;17.02;;;15.25;;
77310;SDS011;66371;52.714;5.074;2023-08-06T02:25:26;16.13;;;12.80;;
77310;SDS011;66371;52.714;5.074;2023-08-06T02:28:50;15.65;;;13.95;;
77310;SDS011;66371;52.714;5.074;2023-08-06T02:32:14;15.93;;;14.13;;
77310;SDS011;66371;52.714;5.074;2023-08-06T02:35:20;16.67;;;14.23;;
77310;SDS011;66371;52.714;5.074;2023-08-06T02:38:43;16.13;;;14.20;;
77310;SDS011;66371;52.714;5.074;2023-08-06T02:42:06;18.10;;;13.68;;
77310;SDS011;66371;52.714;5.074;2023-08-06T02:45:30;18.95;;;14.30;;
77310;SDS011;66371;52.714;5.074;2023-08-06T02:48:23;20.42;;;16.15;;
77310;SDS011;66371;52.714;5.074;2023-08-06T02:51:23;17.83;;;14.65;;
77310;SDS011;66371;52.714;5.074;2023-08-06T02:54:12;18.77;;;16.77;;
77310;SDS011;66371;52.714;5.074;2023-08-06T02:56:38;17.17;;;14.65;;
77310;SDS011;66371;52.714;5.074;2023-08-06T02:59:47;21.13;;;15.35;;
77310;SDS011;66371;52.714;5.074;2023-08-06T03:02:23;17.25;;;13.93;;
77310;SDS011;66371;52.714;5.074;2023-08-06T03:05:09;18.23;;;13.60;;
77310;SDS011;66371;52.714;5.074;2023-08-06T03:08:00;19.10;;;17.13;;
77310;SDS011;66371;52.714;5.074;2023-08-06T03:11:15;17.67;;;14.55;;
77310;SDS011;66371;52.714;5.074;2023-08-06T03:14:35;20.05;;;18.15;;
77310;SDS011;66371;52.714;5.074;2023-08-06T03:18:00;18.63;;;13.88;;
77310;SDS011;66371;52.714;5.074;2023-08-06T03:21:17;17.33;;;13.90;;
77310;SDS011;66371;52.714;5.074;2023-08-06T03:24:24;17.27;;;14.40;;
77310;SDS011;66371;52.714;5.074;2023-08-06T03:27:09;20.20;;;15.68;;
77310;SDS011;66371;52.714;5.074;2023-08-06T03:29:34;15.87;;;13.83;;
77310;SDS011;66371;52.714;5.074;2023-08-06T03:31:59;13.93;;;12.30;;
77310;SDS011;66371;52.714;5.074;2023-08-06T03:34:25;13.73;;;11.40;;
77310;SDS011;66371;52.714;5.074;2023-08-06T03:36:50;12.40;;;11.07;;
77310;SDS011;66371;52.714;5.074;2023-08-06T03:39:15;12.73;;;10.77;;
77310;SDS011;66371;52.714;5.074;2023-08-06T03:41:41;12.67;;;10.47;;
77310;SDS011;66371;52.714;5.074;2023-08-06T03:44:06;12.15;;;10.85;;
77310;SDS011;66371;52.714;5.074;2023-08-06T03:46:31;11.60;;;10.40;;
77310;SDS011;66371;52.714;5.074;2023-08-06T03:49:00;10.98;;;9.75;;
77310;SDS011;66371;52.714;5.074;2023-08-06T03:51:25;10.55;;;9.45;;
77310;SDS011;66371;52.714;5.074;2023-08-06T03:53:51;12.43;;;11.13;;
77310;SDS011;66371;52.714;5.074;2023-08-06T03:56:16;10.27;;;9.23;;
77310;SDS011;66371;52.714;5.074;2023-08-06T03:58:42;10.52;;;8.82;;
77310;SDS011;66371;52.714;5.074;2023-08-06T04:01:07;10.23;;;7.65;;
77310;SDS011;66371;52.714;5.074;2023-08-06T04:03:33;9.82;;;8.05;;
77310;SDS011;66371;52.714;5.074;2023-08-06T04:05:58;9.25;;;8.00;;
77310;SDS011;66371;52.714;5.074;2023-08-06T04:08:24;11.05;;;8.85;;
77310;SDS011;66371;52.714;5.074;2023-08-06T04:10:51;9.37;;;8.37;;
77310;SDS011;66371;52.714;5.074;2023-08-06T04:13:17;11.85;;;9.25;;
77310;SDS011;66371;52.714;5.074;2023-08-06T04:15:42;12.35;;;10.98;;
77310;SDS011;66371;52.714;5.074;2023-08-06T04:18:07;13.50;;;10.60;;
77310;SDS011;66371;52.714;5.074;2023-08-06T04:20:33;14.17;;;11.10;;
77310;SDS011;66371;52.714;5.074;2023-08-06T04:23:09;12.45;;;10.75;;
77310;SDS011;66371;52.714;5.074;2023-08-06T04:25:34;13.95;;;12.55;;
77310;SDS011;66371;52.714;5.074;2023-08-06T04:28:00;15.20;;;12.83;;
77310;SDS011;66371;52.714;5.074;2023-08-06T04:30:25;15.23;;;13.73;;
77310;SDS011;66371;52.714;5.074;2023-08-06T04:32:51;15.88;;;11.45;;
77310;SDS011;66371;52.714;5.074;2023-08-06T04:35:19;15.82;;;13.75;;
77310;SDS011;66371;52.714;5.074;2023-08-06T04:37:44;14.93;;;12.53;;
77310;SDS011;66371;52.714;5.074;2023-08-06T04:40:10;15.00;;;12.13;;
77310;SDS011;66371;52.714;5.074;2023-08-06T04:42:35;12.38;;;10.65;;
77310;SDS011;66371;52.714;5.074;2023-08-06T04:45:01;13.57;;;10.90;;
77310;SDS011;66371;52.714;5.074;2023-08-06T04:47:27;13.25;;;11.65;;
77310;SDS011;66371;52.714;5.074;2023-08-06T04:49:53;12.77;;;11.00;;
77310;SDS011;66371;52.714;5.074;2023-08-06T04:52:18;13.35;;;12.05;;
77310;SDS011;66371;52.714;5.074;2023-08-06T04:54:44;13.23;;;11.93;;
77310;SDS011;66371;52.714;5.074;2023-08-06T04:57:09;12.60;;;11.33;;
77310;SDS011;66371;52.714;5.074;2023-08-06T04:59:35;12.83;;;10.43;;
77310;SDS011;66371;52.714;5.074;2023-08-06T05:02:00;13.45;;;10.35;;
77310;SDS011;66371;52.714;5.074;2023-08-06T05:04:26;15.45;;;14.07;;
77310;SDS011;66371;52.714;5.074;2023-08-06T05:06:52;12.52;;;11.23;;
77310;SDS011;66371;52.714;5.074;2023-08-06T05:09:17;9.57;;;8.35;;
77310;SDS011;66371;52.714;5.074;2023-08-06T05:11:42;10.87;;;9.87;;
77310;SDS011;66371;52.714;5.074;2023-08-06T05:14:08;8.23;;;7.43;;
77310;SDS011;66371;52.714;5.074;2023-08-06T05:16:33;11.70;;;10.60;;
77310;SDS011;66371;52.714;5.074;2023-08-06T05:18:58;9.10;;;8.03;;
77310;SDS011;66371;52.714;5.074;2023-08-06T05:21:32;14.50;;;13.30;;
77310;SDS011;66371;52.714;5.074;2023-08-06T05:24:41;8.30;;;7.50;;
77310;SDS011;66371;52.714;5.074;2023-08-06T05:28:05;11.35;;;10.35;;
77310;SDS011;66371;52.714;5.074;2023-08-06T05:31:29;8.93;;;8.02;;
77310;SDS011;66371;52.714;5.074;2023-08-06T05:34:01;11.15;;;8.75;;
77310;SDS011;66371;52.714;5.074;2023-08-06T05:36:27;9.27;;;8.33;;
77310;SDS011;66371;52.714;5.074;2023-08-06T05:38:52;8.23;;;7.43;;
77310;SDS011;66371;52.714;5.074;2023-08-06T05:41:17;12.90;;;11.97;;
77310;SDS011;66371;52.714;5.074;2023-08-06T05:43:43;8.45;;;7.15;;
77310;SDS011;66371;52.714;5.074;2023-08-06T05:46:08;8.90;;;8.10;;
77310;SDS011;66371;52.714;5.074;2023-08-06T05:48:33;9.73;;;8.93;;
77310;SDS011;66371;52.714;5.074;2023-08-06T05:50:59;9.88;;;8.98;;
77310;SDS011;66371;52.714;5.074;2023-08-06T05:53:24;10.02;;;8.20;;
77310;SDS011;66371;52.714;5.074;2023-08-06T05:55:50;8.30;;;7.50;;
77310;SDS011;66371;52.714;5.074;2023-08-06T05:58:15;10.05;;;8.77;;
77310;SDS011;66371;52.714;5.074;2023-08-06T06:00:41;10.55;;;9.55;;
77310;SDS011;66371;52.714;5.074;2023-08-06T06:03:06;10.80;;;9.18;;
77310;SDS011;66371;52.714;5.074;2023-08-06T06:05:32;13.80;;;11.33;;
77310;SDS011;66371;52.714;5.074;2023-08-06T06:07:57;14.10;;;12.70;;
77310;SDS011;66371;52.714;5.074;2023-08-06T06:10:23;12.32;;;10.85;;
77310;SDS011;66371;52.714;5.074;2023-08-06T06:12:57;12.75;;;11.40;;
77310;SDS011;66371;52.714;5.074;2023-08-06T06:15:22;11.77;;;10.45;;
77310;SDS011;66371;52.714;5.074;2023-08-06T06:17:55;12.75;;;11.45;;
77310;SDS011;66371;52.714;5.074;2023-08-06T06:20:21;12.77;;;10.88;;
77310;SDS011;66371;52.714;5.074;2023-08-06T06:22:46;15.68;;;11.60;;
77310;SDS011;66371;52.714;5.074;2023-08-06T06:25:15;13.68;;;12.23;;
77310;SDS011;66371;52.714;5.074;2023-08-06T06:27:40;13.30;;;11.45;;
77310;SDS011;66371;52.714;5.074;2023-08-06T06:30:06;13.27;;;11.87;;
77310;SDS011;66371;52.714;5.074;2023-08-06T06:32:32;13.40;;;12.00;;
77310;SDS011;66371;52.714;5.074;2023-08-06T06:34:57;14.30;;;12.85;;
77310;SDS011;66371;52.714;5.074;2023-08-06T06:37:24;14.55;;;13.05;;
77310;SDS011;66371;52.714;5.074;2023-08-06T06:39:49;14.60;;;12.93;;
77310;SDS011;66371;52.714;5.074;2023-08-06T06:42:14;13.02;;;11.35;;
77310;SDS011;66371;52.714;5.074;2023-08-06T06:44:40;13.68;;;11.45;;
77310;SDS011;66371;52.714;5.074;2023-08-06T06:47:05;15.70;;;14.25;;
77310;SDS011;66371;52.714;5.074;2023-08-06T06:49:31;15.50;;;13.60;;
77310;SDS011;66371;52.714;5.074;2023-08-06T06:51:57;13.85;;;11.95;;
77310;SDS011;66371;52.714;5.074;2023-08-06T06:54:22;17.70;;;16.10;;
77310;SDS011;66371;52.714;5.074;2023-08-06T06:56:48;14.27;;;12.77;;
77310;SDS011;66371;52.714;5.074;2023-08-06T06:59:13;14.85;;;12.13;;
77310;SDS011;66371;52.714;5.074;2023-08-06T07:01:38;14.07;;;12.00;;
77310;SDS011;66371;52.714;5.074;2023-08-06T07:04:04;17.40;;;12.33;;
77310;SDS011;66371;52.714;5.074;2023-08-06T07:06:30;13.18;;;11.02;;
77310;SDS011;66371;52.714;5.074;2023-08-06T07:08:56;14.82;;;12.55;;
77310;SDS011;66371;52.714;5.074;2023-08-06T07:11:21;13.15;;;11.75;;
77310;SDS011;66371;52.714;5.074;2023-08-06T07:13:47;13.38;;;10.98;;
77310;SDS011;66371;52.714;5.074;2023-08-06T07:16:12;13.33;;;11.57;;
77310;SDS011;66371;52.714;5.074;2023-08-06T07:18:37;14.53;;;12.23;;
77310;SDS011;66371;52.714;5.074;2023-08-06T07:21:03;12.73;;;10.80;;
77310;SDS011;66371;52.714;5.074;2023-08-06T07:23:28;11.73;;;10.07;;
77310;SDS011;66371;52.714;5.074;2023-08-06T07:25:53;12.80;;;11.55;;
77310;SDS011;66371;52.714;5.074;2023-08-06T07:28:19;14.27;;;11.40;;
77310;SDS011;66371;52.714;5.074;2023-08-06T07:30:45;12.23;;;9.93;;
77310;SDS011;66371;52.714;5.074;2023-08-06T07:33:10;11.98;;;10.85;;
77310;SDS011;66371;52.714;5.074;2023-08-06T07:35:37;10.13;;;9.20;;
77310;SDS011;66371;52.714;5.074;2023-08-06T07:38:03;9.15;;;8.25;;
77310;SDS011;66371;52.714;5.074;2023-08-06T07:40:28;9.57;;;7.13;;
77310;SDS011;66371;52.714;5.074;2023-08-06T07:42:54;9.05;;;8.18;;
77310;SDS011;66371;52.714;5.074;2023-08-06T07:45:20;9.75;;;7.85;;
77310;SDS011;66371;52.714;5.074;2023-08-06T07:47:45;7.78;;;6.85;;
77310;SDS011;66371;52.714;5.074;2023-08-06T07:50:11;8.13;;;7.30;;
77310;SDS011;66371;52.714;5.074;2023-08-06T07:52:37;8.20;;;7.40;;
77310;SDS011;66371;52.714;5.074;2023-08-06T07:55:02;8.43;;;5.83;;
77310;SDS011;66371;52.714;5.074;2023-08-06T07:57:32;7.30;;;6.60;;
77310;SDS011;66371;52.714;5.074;2023-08-06T07:59:59;5.93;;;5.43;;
77310;SDS011;66371;52.714;5.074;2023-08-06T08:02:25;7.35;;;5.75;;
77310;SDS011;66371;52.714;5.074;2023-08-06T08:04:50;6.22;;;5.72;;
77310;SDS011;66371;52.714;5.074;2023-08-06T08:07:15;6.32;;;5.82;;
77310;SDS011;66371;52.714;5.074;2023-08-06T08:09:41;6.55;;;5.53;;
77310;SDS011;66371;52.714;5.074;2023-08-06T08:12:06;6.70;;;5.43;;
77310;SDS011;66371;52.714;5.074;2023-08-06T08:14:32;5.90;;;5.40;;
77310;SDS011;66371;52.714;5.074;2023-08-06T08:17:02;6.53;;;5.95;;
77310;SDS011;66371;52.714;5.074;2023-08-06T08:19:28;6.50;;;5.97;;
77310;SDS011;66371;52.714;5.074;2023-08-06T08:21:54;5.63;;;5.13;;
77310;SDS011;66371;52.714;5.074;2023-08-06T08:24:19;10.80;;;5.53;;
77310;SDS011;66371;52.714;5.074;2023-08-06T08:26:48;7.10;;;5.07;;
77310;SDS011;66371;52.714;5.074;2023-08-06T08:29:14;10.10;;;9.35;;
77310;SDS011;66371;52.714;5.074;2023-08-06T08:31:39;9.87;;;9.20;;
77310;SDS011;66371;52.714;5.074;2023-08-06T08:34:05;6.40;;;5.57;;
77310;SDS011;66371;52.714;5.074;2023-08-06T08:36:31;5.50;;;5.00;;
77310;SDS011;66371;52.714;5.074;2023-08-06T08:38:58;10.15;;;9.45;;
77310;SDS011;66371;52.714;5.074;2023-08-06T08:41:23;6.18;;;5.10;;
77310;SDS011;66371;52.714;5.074;2023-08-06T08:43:49;8.27;;;7.57;;
77310;SDS011;66371;52.714;5.074;2023-08-06T08:46:17;6.07;;;5.53;;
77310;SDS011;66371;52.714;5.074;2023-08-06T08:48:49;6.78;;;5.95;;
77310;SDS011;66371;52.714;5.074;2023-08-06T08:51:15;6.65;;;5.97;;
77310;SDS011;66371;52.714;5.074;2023-08-06T08:53:42;6.22;;;5.63;;
77310;SDS011;66371;52.714;5.074;2023-08-06T08:56:09;7.45;;;6.75;;
77310;SDS011;66371;52.714;5.074;2023-08-06T08:58:37;6.32;;;5.82;;
77310;SDS011;66371;52.714;5.074;2023-08-06T09:01:05;5.97;;;5.38;;
77310;SDS011;66371;52.714;5.074;2023-08-06T09:03:32;8.15;;;7.55;;
77310;SDS011;66371;52.714;5.074;2023-08-06T09:05:59;11.07;;;6.70;;
77310;SDS011;66371;52.714;5.074;2023-08-06T09:08:27;5.70;;;4.75;;
77310;SDS011;66371;52.714;5.074;2023-08-06T09:10:59;6.82;;;5.75;;
77310;SDS011;66371;52.714;5.074;2023-08-06T09:13:26;6.43;;;4.60;;
77310;SDS011;66371;52.714;5.074;2023-08-06T09:15:52;6.40;;;5.80;;
77310;SDS011;66371;52.714;5.074;2023-08-06T09:18:25;6.13;;;5.28;;
77310;SDS011;66371;52.714;5.074;2023-08-06T09:20:52;5.95;;;4.15;;
77310;SDS011;66371;52.714;5.074;2023-08-06T09:23:17;6.27;;;5.03;;
77310;SDS011;66371;52.714;5.074;2023-08-06T09:25:42;4.57;;;4.13;;
77310;SDS011;66371;52.714;5.074;2023-08-06T09:28:08;6.53;;;5.93;;
77310;SDS011;66371;52.714;5.074;2023-08-06T09:30:35;6.00;;;4.65;;
77310;SDS011;66371;52.714;5.074;2023-08-06T09:33:02;6.28;;;4.57;;
77310;SDS011;66371;52.714;5.074;2023-08-06T09:35:28;7.57;;;6.97;;
77310;SDS011;66371;52.714;5.074;2023-08-06T09:37:55;5.97;;;5.30;;
77310;SDS011;66371;52.714;5.074;2023-08-06T09:40:35;7.47;;;4.72;;
77310;SDS011;66371;52.714;5.074;2023-08-06T09:43:02;5.47;;;4.40;;
77310;SDS011;66371;52.714;5.074;2023-08-06T09:45:31;6.18;;;5.15;;
77310;SDS011;66371;52.714;5.074;2023-08-06T09:47:58;6.00;;;5.40;;
77310;SDS011;66371;52.714;5.074;2023-08-06T09:50:28;5.28;;;4.55;;
77310;SDS011;66371;52.714;5.074;2023-08-06T09:52:56;8.55;;;7.10;;
77310;SDS011;66371;52.714;5.074;2023-08-06T09:55:22;5.25;;;4.75;;
77310;SDS011;66371;52.714;5.074;2023-08-06T09:57:49;5.32;;;4.20;;
77310;SDS011;66371;52.714;5.074;2023-08-06T10:00:16;5.38;;;4.50;;
77310;SDS011;66371;52.714;5.074;2023-08-06T10:02:42;5.25;;;4.40;;
77310;SDS011;66371;52.714;5.074;2023-08-06T10:05:08;4.88;;;4.20;;
77310;SDS011;66371;52.714;5.074;2023-08-06T10:07:34;6.45;;;4.30;;
77310;SDS011;66371;52.714;5.074;2023-08-06T10:10:04;7.45;;;4.45;;
77310;SDS011;66371;52.714;5.074;2023-08-06T10:12:31;6.32;;;4.45;;
77310;SDS011;66371;52.714;5.074;2023-08-06T10:15:01;4.60;;;4.03;;
77310;SDS011;66371;52.714;5.074;2023-08-06T10:17:29;7.07;;;5.18;;
77310;SDS011;66371;52.714;5.074;2023-08-06T10:19:57;5.53;;;4.72;;
77310;SDS011;66371;52.714;5.074;2023-08-06T10:22:24;7.70;;;4.43;;
77310;SDS011;66371;52.714;5.074;2023-08-06T10:24:57;6.00;;;5.53;;
77310;SDS011;66371;52.714;5.074;2023-08-06T10:27:30;5.10;;;3.95;;
77310;SDS011;66371;52.714;5.074;2023-08-06T10:32:50;5.32;;;3.85;;
77310;SDS011;66371;52.714;5.074;2023-08-06T10:43:27;6.15;;;5.20;;
77310;SDS011;66371;52.714;5.074;2023-08-06T10:45:53;5.60;;;3.92;;
77310;SDS011;66371;52.714;5.074;2023-08-06T10:48:35;5.20;;;4.72;;
77310;SDS011;66371;52.714;5.074;2023-08-06T10:51:08;6.55;;;4.93;;
77310;SDS011;66371;52.714;5.074;2023-08-06T10:53:34;8.10;;;7.18;;
77310;SDS011;66371;52.714;5.074;2023-08-06T10:56:01;5.70;;;4.93;;
77310;SDS011;66371;52.714;5.074;2023-08-06T10:58:33;6.22;;;4.78;;
77310;SDS011;66371;52.714;5.074;2023-08-06T11:00:58;5.00;;;4.43;;
77310;SDS011;66371;52.714;5.074;2023-08-06T11:03:24;6.82;;;4.40;;
77310;SDS011;66371;52.714;5.074;2023-08-06T11:05:51;6.30;;;4.13;;
77310;SDS011;66371;52.714;5.074;2023-08-06T11:08:32;4.93;;;3.95;;
77310;SDS011;66371;52.714;5.074;2023-08-06T11:11:09;7.05;;;3.67;;
77310;SDS011;66371;52.714;5.074;2023-08-06T11:13:38;6.78;;;5.40;;
77310;SDS011;66371;52.714;5.074;2023-08-06T11:16:05;5.32;;;4.30;;
77310;SDS011;66371;52.714;5.074;2023-08-06T11:18:31;7.00;;;4.18;;
77310;SDS011;66371;52.714;5.074;2023-08-06T11:21:01;5.68;;;4.00;;
77310;SDS011;66371;52.714;5.074;2023-08-06T11:23:27;4.97;;;3.35;;
77310;SDS011;66371;52.714;5.074;2023-08-06T11:25:56;7.47;;;5.93;;
77310;SDS011;66371;52.714;5.074;2023-08-06T11:28:22;5.45;;;4.07;;
77310;SDS011;66371;52.714;5.074;2023-08-06T11:30:48;5.22;;;4.57;;
77310;SDS011;66371;52.714;5.074;2023-08-06T11:33:14;4.65;;;4.07;;
77310;SDS011;66371;52.714;5.074;2023-08-06T11:35:39;6.00;;;5.40;;
77310;SDS011;66371;52.714;5.074;2023-08-06T11:38:05;4.47;;;3.63;;
77310;SDS011;66371;52.714;5.074;2023-08-06T11:40:31;5.15;;;4.57;;
77310;SDS011;66371;52.714;5.074;2023-08-06T11:42:58;4.15;;;3.78;;
77310;SDS011;66371;52.714;5.074;2023-08-06T11:45:23;5.70;;;3.70;;
77310;SDS011;66371;52.714;5.074;2023-08-06T11:47:50;5.65;;;3.65;;
77310;SDS011;66371;52.714;5.074;2023-08-06T11:50:23;7.88;;;7.25;;
77310;SDS011;66371;52.714;5.074;2023-08-06T11:52:52;4.70;;;3.67;;
77310;SDS011;66371;52.714;5.074;2023-08-06T11:55:22;6.63;;;5.97;;
77310;SDS011;66371;52.714;5.074;2023-08-06T11:57:48;5.78;;;3.85;;
77310;SDS011;66371;52.714;5.074;2023-08-06T12:00:14;4.97;;;4.25;;
77310;SDS011;66371;52.714;5.074;2023-08-06T12:02:42;5.00;;;4.50;;
77310;SDS011;66371;52.714;5.074;2023-08-06T12:07:44;6.55;;;5.95;;
77310;SDS011;66371;52.714;5.074;2023-08-06T12:10:12;4.97;;;4.25;;
77310;SDS011;66371;52.714;5.074;2023-08-06T12:12:38;4.78;;;4.05;;
77310;SDS011;66371;52.714;5.074;2023-08-06T12:15:04;5.13;;;4.63;;
77310;SDS011;66371;52.714;5.074;2023-08-06T12:17:31;6.43;;;5.82;;
77310;SDS011;66371;52.714;5.074;2023-08-06T12:19:57;4.95;;;4.45;;
77310;SDS011;66371;52.714;5.074;2023-08-06T12:22:22;5.78;;;4.05;;
77310;SDS011;66371;52.714;5.074;2023-08-06T12:24:48;4.43;;;4.03;;
77310;SDS011;66371;52.714;5.074;2023-08-06T12:27:14;5.30;;;4.80;;
77310;SDS011;66371;52.714;5.074;2023-08-06T12:29:44;4.85;;;4.45;;
77310;SDS011;66371;52.714;5.074;2023-08-06T12:32:11;7.18;;;5.38;;
77310;SDS011;66371;52.714;5.074;2023-08-06T12:34:37;5.88;;;4.68;;
77310;SDS011;66371;52.714;5.074;2023-08-06T12:37:04;5.32;;;4.88;;
77310;SDS011;66371;52.714;5.074;2023-08-06T12:39:29;7.20;;;4.50;;
77310;SDS011;66371;52.714;5.074;2023-08-06T12:41:56;5.75;;;4.43;;
77310;SDS011;66371;52.714;5.074;2023-08-06T12:44:22;4.68;;;3.97;;
77310;SDS011;66371;52.714;5.074;2023-08-06T12:46:49;4.68;;;3.90;;
77310;SDS011;66371;52.714;5.074;2023-08-06T12:49:14;4.85;;;4.18;;
77310;SDS011;66371;52.714;5.074;2023-08-06T12:51:40;6.27;;;4.10;;
77310;SDS011;66371;52.714;5.074;2023-08-06T12:54:05;4.80;;;4.13;;
77310;SDS011;66371;52.714;5.074;2023-08-06T12:56:30;5.50;;;5.00;;
77310;SDS011;66371;52.714;5.074;2023-08-06T12:58:56;5.85;;;4.45;;
77310;SDS011;66371;52.714;5.074;2023-08-06T13:01:21;6.97;;;6.27;;
77310;SDS011;66371;52.714;5.074;2023-08-06T13:03:47;4.82;;;4.43;;
77310;SDS011;66371;52.714;5.074;2023-08-06T13:06:15;5.07;;;3.75;;
77310;SDS011;66371;52.714;5.074;2023-08-06T13:08:40;6.67;;;6.17;;
77310;SDS011;66371;52.714;5.074;2023-08-06T13:11:05;8.20;;;7.50;;
77310;SDS011;66371;52.714;5.074;2023-08-06T13:13:31;5.10;;;4.63;;
77310;SDS011;66371;52.714;5.074;2023-08-06T13:15:56;5.00;;;3.92;;
77310;SDS011;66371;52.714;5.074;2023-08-06T13:18:22;5.27;;;3.33;;
77310;SDS011;66371;52.714;5.074;2023-08-06T13:20:47;4.37;;;3.93;;
77310;SDS011;66371;52.714;5.074;2023-08-06T13:23:14;5.13;;;4.63;;
77310;SDS011;66371;52.714;5.074;2023-08-06T13:25:41;5.55;;;4.30;;
77310;SDS011;66371;52.714;5.074;2023-08-06T13:28:07;4.30;;;3.92;;
77310;SDS011;66371;52.714;5.074;2023-08-06T13:30:33;3.67;;;3.33;;
77310;SDS011;66371;52.714;5.074;2023-08-06T13:33:00;4.57;;;3.30;;
77310;SDS011;66371;52.714;5.074;2023-08-06T13:35:26;4.57;;;4.03;;
77310;SDS011;66371;52.714;5.074;2023-08-06T13:37:51;4.88;;;4.15;;
77310;SDS011;66371;52.714;5.074;2023-08-06T13:40:17;4.72;;;3.83;;
77310;SDS011;66371;52.714;5.074;2023-08-06T13:42:42;5.20;;;3.40;;
77310;SDS011;66371;52.714;5.074;2023-08-06T13:45:08;4.28;;;3.88;;
77310;SDS011;66371;52.714;5.074;2023-08-06T13:47:34;3.97;;;3.58;;
77310;SDS011;66371;52.714;5.074;2023-08-06T13:49:59;4.22;;;3.67;;
77310;SDS011;66371;52.714;5.074;2023-08-06T13:52:25;6.22;;;3.70;;
77310;SDS011;66371;52.714;5.074;2023-08-06T13:54:51;4.05;;;3.65;;
77310;SDS011;66371;52.714;5.074;2023-08-06T13:57:17;3.30;;;3.00;;
77310;SDS011;66371;52.714;5.074;2023-08-06T13:59:42;3.70;;;3.40;;
77310;SDS011;66371;52.714;5.074;2023-08-06T14:02:08;3.72;;;2.72;;
77310;SDS011;66371;52.714;5.074;2023-08-06T14:04:34;3.63;;;2.42;;
77310;SDS011;66371;52.714;5.074;2023-08-06T14:06:59;6.03;;;3.15;;
77310;SDS011;66371;52.714;5.074;2023-08-06T14:09:25;4.33;;;3.03;;
77310;SDS011;66371;52.714;5.074;2023-08-06T14:11:50;5.77;;;3.27;;
77310;SDS011;66371;52.714;5.074;2023-08-06T14:14:16;5.30;;;2.83;;
77310;SDS011;66371;52.714;5.074;2023-08-06T14:16:41;4.55;;;2.75;;
77310;SDS011;66371;52.714;5.074;2023-08-06T14:19:06;5.93;;;2.93;;
77310;SDS011;66371;52.714;5.074;2023-08-06T14:21:32;5.88;;;2.50;;
77310;SDS011;66371;52.714;5.074;2023-08-06T14:23:57;6.03;;;3.13;;
77310;SDS011;66371;52.714;5.074;2023-08-06T14:26:23;7.83;;;3.57;;
77310;SDS011;66371;52.714;5.074;2023-08-06T14:28:48;4.13;;;3.63;;
77310;SDS011;66371;52.714;5.074;2023-08-06T14:31:13;5.55;;;3.30;;
77310;SDS011;66371;52.714;5.074;2023-08-06T14:33:39;5.83;;;3.50;;
77310;SDS011;66371;52.714;5.074;2023-08-06T14:36:04;4.45;;;3.40;;
77310;SDS011;66371;52.714;5.074;2023-08-06T14:38:30;6.90;;;5.78;;
77310;SDS011;66371;52.714;5.074;2023-08-06T14:40:55;5.88;;;4.57;;
77310;SDS011;66371;52.714;5.074;2023-08-06T14:43:21;6.47;;;5.67;;
77310;SDS011;66371;52.714;5.074;2023-08-06T14:45:46;4.78;;;2.53;;
77310;SDS011;66371;52.714;5.074;2023-08-06T14:48:12;4.88;;;3.40;;
77310;SDS011;66371;52.714;5.074;2023-08-06T14:50:37;6.87;;;3.30;;
77310;SDS011;66371;52.714;5.074;2023-08-06T14:53:04;8.75;;;7.00;;
77310;SDS011;66371;52.714;5.074;2023-08-06T14:55:30;8.10;;;4.05;;
77310;SDS011;66371;52.714;5.074;2023-08-06T14:57:56;4.65;;;4.28;;
77310;SDS011;66371;52.714;5.074;2023-08-06T15:00:21;6.78;;;2.58;;
77310;SDS011;66371;52.714;5.074;2023-08-06T15:02:47;3.70;;;2.97;;
77310;SDS011;66371;52.714;5.074;2023-08-06T15:05:12;6.00;;;5.38;;
77310;SDS011;66371;52.714;5.074;2023-08-06T15:07:38;4.05;;;3.75;;
77310;SDS011;66371;52.714;5.074;2023-08-06T15:10:04;5.00;;;2.30;;
77310;SDS011;66371;52.714;5.074;2023-08-06T15:12:33;6.88;;;2.85;;
77310;SDS011;66371;52.714;5.074;2023-08-06T15:14:59;5.57;;;2.70;;
77310;SDS011;66371;52.714;5.074;2023-08-06T15:17:26;5.18;;;3.90;;
77310;SDS011;66371;52.714;5.074;2023-08-06T15:19:52;6.88;;;6.32;;
77310;SDS011;66371;52.714;5.074;2023-08-06T15:22:17;6.18;;;3.42;;
77310;SDS011;66371;52.714;5.074;2023-08-06T15:24:43;6.43;;;3.22;;
77310;SDS011;66371;52.714;5.074;2023-08-06T15:27:09;4.75;;;2.78;;
77310;SDS011;66371;52.714;5.074;2023-08-06T15:29:34;3.70;;;2.90;;
77310;SDS011;66371;52.714;5.074;2023-08-06T15:32:00;4.78;;;3.13;;
77310;SDS011;66371;52.714;5.074;2023-08-06T15:34:25;3.30;;;2.50;;
77310;SDS011;66371;52.714;5.074;2023-08-06T15:36:51;4.75;;;2.42;;
77310;SDS011;66371;52.714;5.074;2023-08-06T15:39:16;6.33;;;5.93;;
77310;SDS011;66371;52.714;5.074;2023-08-06T15:41:41;4.63;;;3.67;;
77310;SDS011;66371;52.714;5.074;2023-08-06T15:44:07;3.92;;;3.13;;